createdAt,value
2022-10-14T00:01:11.387Z,30.50
2022-10-14T00:03:40.002Z,31.50
2022-10-14T00:06:10.830Z,34.42
2022-10-14T00:08:38.480Z,38.22
2022-10-14T00:11:10.044Z,35.65
2022-10-14T00:13:38.150Z,30.50
2022-10-14T00:16:07.989Z,31.38
2022-10-14T00:18:35.566Z,33.63
2022-10-14T00:21:03.405Z,28.05
2022-10-14T00:23:32.569Z,33.55
2022-10-14T00:26:00.146Z,36.20
2022-10-14T00:28:31.462Z,31.52
2022-10-14T00:31:01.189Z,32.83
2022-10-14T00:33:30.119Z,29.88
2022-10-14T00:36:05.979Z,36.90
2022-10-14T00:38:37.691Z,38.65
2022-10-14T00:41:05.789Z,30.65
2022-10-14T00:43:54.279Z,35.42
2022-10-14T00:46:22.190Z,38.60
2022-10-14T00:48:54.907Z,36.65
2022-10-14T00:51:22.652Z,40.13
2022-10-14T00:53:53.385Z,37.45
2022-10-14T00:56:25.287Z,35.50
2022-10-14T00:58:54.156Z,36.17
2022-10-14T01:01:22.179Z,31.92
2022-10-14T01:03:49.850Z,40.60
2022-10-14T01:06:23.795Z,39.60
2022-10-14T01:09:01.653Z,39.33
2022-10-14T01:11:37.499Z,40.15
2022-10-14T01:14:16.534Z,34.60
2022-10-14T01:16:50.680Z,35.03
2022-10-14T01:19:38.263Z,30.92
2022-10-14T01:22:17.660Z,34.22
2022-10-14T01:25:01.438Z,32.50
2022-10-14T01:27:49.645Z,34.00
2022-10-14T01:30:20.482Z,33.05
2022-10-14T01:32:56.333Z,34.30
2022-10-14T01:35:37.969Z,28.40
2022-10-14T01:38:11.407Z,30.77
2022-10-14T01:40:43.628Z,38.05
2022-10-14T01:43:13.607Z,34.58
2022-10-14T01:45:43.998Z,33.95
2022-10-14T01:48:14.714Z,35.13
2022-10-14T01:50:46.264Z,33.33
2022-10-14T01:53:18.933Z,36.88
2022-10-14T01:55:48.832Z,29.23
2022-10-14T01:58:20.861Z,32.90
2022-10-14T02:00:49.969Z,35.45
2022-10-14T02:03:17.554Z,33.70
2022-10-14T02:05:50.132Z,36.67
2022-10-14T02:08:27.068Z,31.80
2022-10-14T02:11:06.391Z,38.20
2022-10-14T02:13:58.279Z,35.42
2022-10-14T02:16:37.824Z,31.73
2022-10-14T02:19:17.478Z,31.60
2022-10-14T02:21:49.215Z,37.13
2022-10-14T02:24:21.409Z,30.88
2022-10-14T02:26:50.705Z,37.63
2022-10-14T02:29:19.928Z,35.17
2022-10-14T02:31:50.259Z,32.70
2022-10-14T02:34:22.070Z,35.10
2022-10-14T02:36:51.126Z,38.80
2022-10-14T02:39:23.426Z,32.60
2022-10-14T02:41:51.315Z,33.15
2022-10-14T02:44:18.986Z,35.60
2022-10-14T02:46:49.311Z,34.83
2022-10-14T02:49:17.685Z,32.72
2022-10-14T02:51:45.339Z,36.53
2022-10-14T02:54:13.227Z,39.75
2022-10-14T02:56:42.270Z,37.22
2022-10-14T02:59:09.932Z,34.75
2022-10-14T03:01:38.967Z,39.63
2022-10-14T03:04:10.665Z,38.30
2022-10-14T03:06:38.277Z,45.97
2022-10-14T03:09:06.066Z,41.20
2022-10-14T03:11:36.467Z,37.05
2022-10-14T03:14:07.397Z,43.10
2022-10-14T03:16:35.162Z,36.38
2022-10-14T03:19:04.125Z,44.28
2022-10-14T03:21:49.002Z,43.55
2022-10-14T03:24:20.093Z,39.25
2022-10-14T03:26:52.410Z,42.92
2022-10-14T03:29:25.848Z,39.75
2022-10-14T03:32:10.810Z,41.47
2022-10-14T03:35:08.724Z,40.35
2022-10-14T03:37:37.695Z,42.33
2022-10-14T03:40:06.691Z,47.05
2022-10-14T03:42:36.078Z,43.38
2022-10-14T03:45:03.977Z,37.17
2022-10-14T03:47:32.742Z,39.80
2022-10-14T03:50:02.870Z,39.22
2022-10-14T03:52:47.475Z,40.10
2022-10-14T03:55:22.457Z,42.83
2022-10-14T03:57:51.889Z,40.95
2022-10-14T04:00:20.168Z,44.28
2022-10-14T04:02:55.889Z,49.05
2022-10-14T04:05:34.953Z,39.72
2022-10-14T04:08:10.107Z,41.35
2022-10-14T04:10:40.730Z,44.42
2022-10-14T04:13:11.218Z,46.17
2022-10-14T04:15:40.734Z,46.47
2022-10-14T04:18:17.301Z,44.97
2022-10-14T04:20:46.281Z,46.50
2022-10-14T04:23:16.890Z,51.45
2022-10-14T04:25:47.575Z,42.08
2022-10-14T04:28:15.334Z,46.28
2022-10-14T04:30:55.483Z,41.58
2022-10-14T04:33:28.162Z,45.08
2022-10-14T04:35:58.603Z,46.67
2022-10-14T04:38:32.248Z,41.13
2022-10-14T04:41:04.964Z,45.80
2022-10-14T04:43:32.650Z,46.03
2022-10-14T04:46:12.644Z,44.38
2022-10-14T04:48:40.466Z,42.10
2022-10-14T04:51:08.769Z,37.65
2022-10-14T04:53:50.485Z,47.25
2022-10-14T04:56:34.728Z,40.30
2022-10-14T04:59:04.647Z,46.65
2022-10-14T05:01:50.632Z,49.70
2022-10-14T05:04:18.662Z,53.70
2022-10-14T05:06:48.608Z,51.80
2022-10-14T05:09:20.530Z,50.13
2022-10-14T05:11:48.281Z,56.15
2022-10-14T05:14:20.710Z,68.15
2022-10-14T05:16:52.007Z,66.47
2022-10-14T05:19:26.109Z,67.68
2022-10-14T05:21:54.827Z,53.92
2022-10-14T05:24:29.292Z,62.70
2022-10-14T05:26:56.999Z,56.30
2022-10-14T05:29:25.708Z,66.65
2022-10-14T05:31:54.473Z,58.92
2022-10-14T05:34:51.910Z,52.65
2022-10-14T05:37:31.561Z,61.25
2022-10-14T05:40:01.791Z,60.20
2022-10-14T05:42:30.535Z,56.63
2022-10-14T05:44:59.820Z,52.25
2022-10-14T05:47:29.725Z,56.22
2022-10-14T05:50:03.369Z,46.45
2022-10-14T05:52:34.327Z,47.95
2022-10-14T05:55:08.835Z,59.22
2022-10-14T05:57:37.008Z,45.83
2022-10-14T06:00:07.253Z,48.95
2022-10-14T06:02:44.865Z,48.35
2022-10-14T06:05:16.283Z,46.25
2022-10-14T06:07:44.494Z,54.95
2022-10-14T06:10:13.523Z,51.95
2022-10-14T06:12:41.865Z,48.38
2022-10-14T06:15:10.126Z,50.75
2022-10-14T06:17:38.159Z,38.85
2022-10-14T06:20:06.662Z,51.22
2022-10-14T06:22:34.228Z,48.13
2022-10-14T06:25:04.442Z,52.33
2022-10-14T06:27:43.837Z,42.47
2022-10-14T06:30:13.141Z,44.33
2022-10-14T06:32:40.801Z,46.10
2022-10-14T06:35:09.145Z,42.65
2022-10-14T06:37:37.284Z,46.30
2022-10-14T06:40:05.506Z,47.10
2022-10-14T06:42:35.779Z,47.55
2022-10-14T06:45:04.235Z,44.50
2022-10-14T06:47:32.750Z,47.90
2022-10-14T06:50:01.238Z,46.20
2022-10-14T06:52:28.857Z,43.47
2022-10-14T06:54:56.405Z,47.03
2022-10-14T06:57:23.950Z,46.83
2022-10-14T06:59:52.891Z,56.40
2022-10-14T07:02:20.776Z,53.78
2022-10-14T07:04:48.705Z,46.28
2022-10-14T07:07:16.297Z,42.95
2022-10-14T07:09:43.871Z,47.30
2022-10-14T07:12:11.593Z,46.05
2022-10-14T07:14:39.305Z,47.67
2022-10-14T07:17:09.311Z,56.05
2022-10-14T07:19:36.943Z,48.75
2022-10-14T07:22:04.637Z,51.30
2022-10-14T07:24:32.420Z,53.72
2022-10-14T07:27:00.096Z,46.78
2022-10-14T07:29:27.959Z,49.75
2022-10-14T07:31:55.911Z,45.83
2022-10-14T07:34:24.776Z,49.70
2022-10-14T07:36:52.378Z,45.95
2022-10-14T07:39:20.194Z,48.40
2022-10-14T07:41:48.373Z,42.92
2022-10-14T07:44:16.857Z,42.00
2022-10-14T07:46:45.845Z,46.75
2022-10-14T07:49:16.927Z,46.00
2022-10-14T07:51:46.943Z,40.75
2022-10-14T07:54:16.655Z,41.00
2022-10-14T07:56:45.379Z,43.42
2022-10-14T07:59:13.600Z,43.42
2022-10-14T08:01:42.839Z,33.40
2022-10-14T08:04:11.901Z,39.95
2022-10-14T08:06:39.610Z,41.20
2022-10-14T08:09:10.753Z,42.42
2022-10-14T08:11:38.769Z,41.90
2022-10-14T08:14:06.907Z,37.35
2022-10-14T08:16:36.507Z,34.17
2022-10-14T08:19:12.596Z,37.40
2022-10-14T08:21:42.555Z,37.03
2022-10-14T08:24:12.202Z,35.63
2022-10-14T08:26:41.886Z,35.58
2022-10-14T08:29:12.536Z,36.25
2022-10-14T08:31:40.282Z,34.58
2022-10-14T08:34:07.930Z,37.72
2022-10-14T08:36:35.542Z,42.40
2022-10-14T08:39:03.233Z,38.83
2022-10-14T08:41:46.778Z,39.85
2022-10-14T08:44:19.866Z,34.63
2022-10-14T08:46:52.263Z,35.15
2022-10-14T08:49:25.873Z,37.35
2022-10-14T08:51:58.510Z,34.35
2022-10-14T08:54:33.298Z,36.15
2022-10-14T08:57:04.129Z,41.45
2022-10-14T08:59:35.372Z,29.00
2022-10-14T09:02:12.924Z,29.15
2022-10-14T09:04:40.679Z,29.30
2022-10-14T09:07:11.636Z,30.15
2022-10-14T09:09:42.785Z,41.47
2022-10-14T09:12:14.650Z,32.50
2022-10-14T09:14:46.929Z,32.30
2022-10-14T09:17:19.195Z,32.88
2022-10-14T09:19:52.510Z,34.90
2022-10-14T09:22:20.541Z,29.83
2022-10-14T09:24:49.186Z,30.75
2022-10-14T09:27:21.871Z,39.38
2022-10-14T09:29:52.950Z,34.47
2022-10-14T09:32:28.419Z,32.03
2022-10-14T09:34:56.966Z,35.20
2022-10-14T09:37:29.542Z,33.10
2022-10-14T09:40:00.686Z,29.98
2022-10-14T09:42:41.732Z,28.83
2022-10-14T09:45:12.902Z,38.30
2022-10-14T09:47:46.893Z,34.13
2022-10-14T09:50:23.724Z,32.65
2022-10-14T09:52:55.410Z,36.05
2022-10-14T09:55:25.124Z,31.95
2022-10-14T09:58:04.547Z,34.75
2022-10-14T10:00:35.261Z,30.58
2022-10-14T10:03:03.064Z,29.48
2022-10-14T10:05:32.352Z,27.30
2022-10-14T10:08:07.139Z,31.70
2022-10-14T10:10:35.771Z,32.80
2022-10-14T10:13:07.694Z,30.83
2022-10-14T10:15:35.365Z,26.02
2022-10-14T10:18:18.817Z,28.98
2022-10-14T10:21:02.157Z,35.60
2022-10-14T10:23:31.102Z,29.45
2022-10-14T10:26:16.014Z,24.05
2022-10-14T10:28:49.792Z,28.77
2022-10-14T10:31:43.778Z,26.92
2022-10-14T10:34:35.889Z,34.60
2022-10-14T10:37:08.558Z,44.75
2022-10-14T10:39:43.965Z,28.90
2022-10-14T10:42:21.890Z,23.65
2022-10-14T10:45:03.398Z,25.50
2022-10-14T10:47:41.048Z,25.92
2022-10-14T10:50:27.223Z,29.08
2022-10-14T10:53:19.299Z,20.98
2022-10-14T10:55:58.677Z,24.13
2022-10-14T10:58:41.557Z,23.33
2022-10-14T11:01:26.073Z,26.90
2022-10-14T11:04:04.926Z,27.33
2022-10-14T11:06:57.660Z,25.05
2022-10-14T11:09:50.702Z,25.80
2022-10-14T11:12:25.733Z,27.25
2022-10-14T11:15:21.951Z,21.10
2022-10-14T11:17:57.834Z,26.83
2022-10-14T11:20:37.148Z,31.67
2022-10-14T11:23:34.732Z,28.63
2022-10-14T11:26:12.382Z,28.08
2022-10-14T11:28:47.426Z,24.10
2022-10-14T11:31:27.833Z,28.30
2022-10-14T11:34:09.566Z,24.92
2022-10-14T11:36:45.219Z,22.30
2022-10-14T11:39:24.584Z,26.15
2022-10-14T11:42:04.953Z,24.35
2022-10-14T11:47:14.432Z,23.70
2022-10-14T11:49:48.686Z,23.67
2022-10-14T11:52:21.907Z,22.00
2022-10-14T11:54:54.639Z,18.33
2022-10-14T11:57:29.929Z,17.70
2022-10-14T12:00:03.247Z,20.48
2022-10-14T12:02:55.262Z,22.42
2022-10-14T12:05:34.616Z,22.27
2022-10-14T12:08:10.621Z,22.88
2022-10-14T12:10:43.286Z,23.60
2022-10-14T12:13:15.718Z,22.67
2022-10-14T12:15:49.861Z,17.50
2022-10-14T12:18:19.560Z,18.30
2022-10-14T12:20:55.554Z,18.27
2022-10-14T12:23:32.249Z,21.05
2022-10-14T12:26:06.185Z,18.45
2022-10-14T12:28:38.214Z,17.65
2022-10-14T12:31:35.242Z,18.00
2022-10-14T12:34:29.386Z,17.83
2022-10-14T12:36:58.512Z,17.02
2022-10-14T12:39:35.007Z,15.10
2022-10-14T12:42:10.854Z,12.73
2022-10-14T12:44:48.049Z,14.70
2022-10-14T12:47:22.554Z,14.10
2022-10-14T12:49:53.998Z,14.73
2022-10-14T12:52:28.076Z,12.60
2022-10-14T12:54:56.522Z,14.27
2022-10-14T12:57:29.541Z,14.65
2022-10-14T13:00:01.486Z,16.88
2022-10-14T13:02:33.478Z,13.07
2022-10-14T13:05:03.558Z,16.08
2022-10-14T13:07:44.415Z,11.77
2022-10-14T13:10:52.325Z,13.50
2022-10-14T13:13:52.701Z,11.73
2022-10-14T13:16:58.621Z,16.42
2022-10-14T13:19:50.241Z,16.30
2022-10-14T13:22:39.985Z,16.10
2022-10-14T13:25:21.430Z,15.85
2022-10-14T13:28:06.887Z,16.55
2022-10-14T13:30:40.864Z,15.40
2022-10-14T13:33:22.055Z,20.10
2022-10-14T13:36:06.534Z,16.77
2022-10-14T13:38:35.866Z,15.85
2022-10-14T13:41:05.964Z,15.82
2022-10-14T13:43:39.185Z,13.45
2022-10-14T13:46:13.144Z,17.95
2022-10-14T13:48:47.972Z,13.07
2022-10-14T13:51:38.722Z,13.40
2022-10-14T13:54:15.164Z,13.50
2022-10-14T13:56:44.935Z,16.55
2022-10-14T13:59:43.171Z,15.65
2022-10-14T14:02:15.473Z,13.52
2022-10-14T14:04:51.503Z,15.02
2022-10-14T14:08:08.414Z,16.23
2022-10-14T14:10:11.795Z,14.20
2022-10-14T14:12:44.180Z,11.93
2022-10-14T14:15:20.474Z,13.25
2022-10-14T14:17:48.148Z,12.95
2022-10-14T14:20:20.347Z,12.90
2022-10-14T14:22:50.619Z,12.25
2022-10-14T14:25:34.192Z,12.70
2022-10-14T14:28:06.954Z,11.10
2022-10-14T14:30:36.202Z,11.20
2022-10-14T14:33:06.096Z,12.52
2022-10-14T14:35:33.783Z,11.98
2022-10-14T14:38:01.706Z,13.30
2022-10-14T14:40:30.948Z,14.00
2022-10-14T14:43:00.481Z,13.02
2022-10-14T14:45:32.411Z,13.10
2022-10-14T14:48:03.889Z,11.82
2022-10-14T14:50:35.260Z,11.20
2022-10-14T14:53:08.335Z,12.60
2022-10-14T14:55:38.916Z,11.15
2022-10-14T14:58:14.593Z,10.38
2022-10-14T15:00:46.593Z,12.52
2022-10-14T15:03:14.549Z,10.80
2022-10-14T15:05:42.187Z,12.90
2022-10-14T15:08:21.513Z,11.82
2022-10-14T15:10:50.340Z,16.25
2022-10-14T15:13:33.031Z,13.13
2022-10-14T15:16:01.932Z,14.63
2022-10-14T15:18:30.405Z,12.80
2022-10-14T15:21:15.834Z,11.95
2022-10-14T15:23:47.013Z,12.93
2022-10-14T15:26:26.006Z,11.20
2022-10-14T15:29:17.047Z,16.02
2022-10-14T15:31:48.167Z,11.43
2022-10-14T15:34:18.380Z,15.15
2022-10-14T15:36:46.328Z,10.35
2022-10-14T15:39:14.945Z,13.50
2022-10-14T15:41:43.360Z,11.75
2022-10-14T15:44:10.990Z,11.63
2022-10-14T15:46:57.898Z,14.27
2022-10-14T15:49:31.248Z,14.40
2022-10-14T15:51:58.824Z,14.27
2022-10-14T15:54:27.535Z,12.88
2022-10-14T15:59:28.936Z,14.30
2022-10-14T16:01:56.709Z,12.98
2022-10-14T16:04:27.733Z,13.00
2022-10-14T16:06:58.036Z,15.98
2022-10-14T16:09:27.567Z,12.48
2022-10-14T16:11:57.953Z,12.82
2022-10-14T16:14:26.917Z,17.00
2022-10-14T16:16:54.831Z,16.55
2022-10-14T16:19:22.698Z,12.32
2022-10-14T16:21:50.871Z,15.38
2022-10-14T16:24:21.226Z,13.40
2022-10-14T16:26:49.621Z,14.52
2022-10-14T16:29:18.012Z,14.70
2022-10-14T16:31:46.738Z,15.63
2022-10-14T16:34:14.310Z,13.07
2022-10-14T16:36:42.387Z,13.88
2022-10-14T16:39:10.399Z,12.80
2022-10-14T16:41:39.677Z,14.27
2022-10-14T16:44:07.635Z,13.10
2022-10-14T16:46:52.889Z,12.93
2022-10-14T16:49:20.612Z,13.27
2022-10-14T16:51:48.113Z,13.90
2022-10-14T16:54:15.733Z,13.88
2022-10-14T16:56:53.820Z,15.10
2022-10-14T16:59:22.534Z,12.50
2022-10-14T17:01:50.996Z,13.02
2022-10-14T17:04:20.403Z,10.32
2022-10-14T17:06:51.841Z,12.93
2022-10-14T17:09:19.961Z,10.68
2022-10-14T17:11:49.931Z,12.55
2022-10-14T17:14:21.787Z,13.95
2022-10-14T17:16:52.246Z,13.00
2022-10-14T17:19:20.351Z,15.38
2022-10-14T17:21:48.687Z,15.45
2022-10-14T17:24:16.952Z,12.80
2022-10-14T17:26:45.729Z,14.18
2022-10-14T17:29:14.703Z,13.93
2022-10-14T17:31:42.334Z,13.20
2022-10-14T17:34:10.199Z,13.10
2022-10-14T17:36:38.788Z,12.23
2022-10-14T17:39:06.723Z,12.48
2022-10-14T17:41:34.711Z,12.02
2022-10-14T17:44:02.325Z,12.68
2022-10-14T17:46:31.513Z,13.05
2022-10-14T17:49:01.418Z,15.75
2022-10-14T17:51:29.661Z,11.68
2022-10-14T17:53:59.090Z,15.65
2022-10-14T17:56:27.683Z,13.35
2022-10-14T17:58:55.552Z,13.27
2022-10-14T18:01:37.482Z,12.45
2022-10-14T18:04:12.728Z,10.75
2022-10-14T18:06:41.284Z,14.10
2022-10-14T18:09:10.489Z,13.85
2022-10-14T18:12:07.121Z,11.70
2022-10-14T18:14:28.773Z,13.70
2022-10-14T18:16:56.307Z,12.90
2022-10-14T18:19:25.149Z,12.35
2022-10-14T18:21:52.929Z,11.43
2022-10-14T18:24:20.672Z,11.40
2022-10-14T18:26:50.614Z,10.68
2022-10-14T18:29:18.348Z,11.48
2022-10-14T18:31:45.894Z,13.50
2022-10-14T18:34:13.984Z,11.70
2022-10-14T18:36:42.826Z,15.80
2022-10-14T18:39:12.894Z,13.75
2022-10-14T18:41:41.779Z,14.10
2022-10-14T18:44:09.288Z,13.02
2022-10-14T18:46:38.352Z,10.93
2022-10-14T18:49:07.670Z,12.07
2022-10-14T18:51:37.398Z,12.68
2022-10-14T18:54:10.087Z,15.82
2022-10-14T18:56:39.194Z,16.27
2022-10-14T18:59:08.999Z,14.05
2022-10-14T19:01:37.713Z,14.57
2022-10-14T19:04:07.154Z,13.77
2022-10-14T19:06:34.848Z,17.15
2022-10-14T19:09:03.363Z,19.67
2022-10-14T19:11:34.137Z,17.75
2022-10-14T19:14:03.689Z,14.30
2022-10-14T19:16:33.072Z,12.05
2022-10-14T19:19:03.758Z,14.05
2022-10-14T19:21:32.093Z,12.68
2022-10-14T19:24:01.359Z,13.70
2022-10-14T19:26:33.602Z,10.75
2022-10-14T19:29:04.309Z,11.73
2022-10-14T19:31:35.929Z,11.60
2022-10-14T19:34:06.600Z,11.23
2022-10-14T19:36:36.558Z,12.68
2022-10-14T19:39:05.817Z,10.88
2022-10-14T19:41:38.384Z,11.55
2022-10-14T19:44:06.084Z,12.13
2022-10-14T19:46:33.632Z,10.02
2022-10-14T19:49:04.083Z,15.77
2022-10-14T19:51:32.358Z,9.95
2022-10-14T19:54:00.217Z,11.40
2022-10-14T19:56:28.772Z,10.13
2022-10-14T19:58:59.681Z,11.65
2022-10-14T20:01:30.346Z,10.80
2022-10-14T20:04:00.531Z,10.13
2022-10-14T20:06:31.223Z,7.78
2022-10-14T20:08:58.806Z,9.50
2022-10-14T20:11:26.481Z,9.80
2022-10-14T20:13:53.986Z,8.88
2022-10-14T20:16:22.886Z,8.80
2022-10-14T20:18:50.465Z,9.35
2022-10-14T20:21:18.037Z,7.40
2022-10-14T20:23:46.127Z,10.30
2022-10-14T20:26:16.235Z,8.18
2022-10-14T20:28:44.132Z,7.68
2022-10-14T20:31:13.281Z,8.40
2022-10-14T20:33:42.482Z,7.82
2022-10-14T20:36:13.440Z,8.40
2022-10-14T20:38:41.831Z,10.95
2022-10-14T20:41:13.257Z,9.30
2022-10-14T20:43:41.663Z,8.98
2022-10-14T20:46:09.772Z,9.40
2022-10-14T20:48:38.280Z,10.20
2022-10-14T20:51:08.315Z,8.40
2022-10-14T20:53:36.202Z,9.48
2022-10-14T20:56:04.812Z,11.05
2022-10-14T20:58:32.665Z,8.65
2022-10-14T21:01:08.739Z,7.60
2022-10-14T21:03:36.497Z,9.77
2022-10-14T21:06:05.290Z,9.38
2022-10-14T21:08:34.695Z,8.68
2022-10-14T21:11:03.583Z,8.75
2022-10-14T21:13:32.285Z,10.30
2022-10-14T21:15:59.803Z,11.70
2022-10-14T21:18:27.858Z,9.02
2022-10-14T21:20:55.378Z,9.02
2022-10-14T21:23:23.038Z,9.68
2022-10-14T21:25:57.397Z,7.22
2022-10-14T21:28:25.230Z,8.23
2022-10-14T21:30:52.868Z,8.23
2022-10-14T21:33:20.529Z,7.72
2022-10-14T21:35:48.107Z,9.65
2022-10-14T21:38:15.727Z,7.57
2022-10-14T21:40:43.227Z,7.72
2022-10-14T21:43:12.680Z,8.68
2022-10-14T21:45:40.241Z,7.53
2022-10-14T21:48:07.760Z,8.10
2022-10-14T21:50:35.315Z,7.10
2022-10-14T21:53:02.947Z,6.57
2022-10-14T21:55:30.436Z,7.25
2022-10-14T21:57:58.174Z,9.15
2022-10-14T22:00:27.113Z,7.45
2022-10-14T22:02:55.110Z,6.60
2022-10-14T22:05:23.146Z,7.22
2022-10-14T22:07:50.678Z,6.20
2022-10-14T22:10:36.120Z,6.70
2022-10-14T22:13:03.721Z,6.40
2022-10-14T22:15:32.549Z,7.15
2022-10-14T22:18:00.079Z,6.82
2022-10-14T22:20:27.670Z,7.35
2022-10-14T22:22:55.447Z,7.03
2022-10-14T22:25:23.025Z,7.55
2022-10-14T22:27:50.620Z,9.00
2022-10-14T22:30:18.422Z,7.18
2022-10-14T22:32:47.399Z,7.40
2022-10-14T22:35:14.986Z,8.15
2022-10-14T22:37:42.577Z,8.80
2022-10-14T22:40:11.570Z,8.27
2022-10-14T22:42:42.127Z,8.75
2022-10-14T22:45:11.340Z,7.15
2022-10-14T22:47:39.090Z,10.55
2022-10-14T22:50:08.997Z,8.65
2022-10-14T22:52:36.895Z,8.90
2022-10-14T22:55:04.812Z,11.23
2022-10-14T22:57:32.415Z,8.95
2022-10-14T23:00:00.343Z,9.27
2022-10-14T23:02:28.389Z,11.93
2022-10-14T23:04:55.961Z,9.48
2022-10-14T23:07:25.364Z,8.52
2022-10-14T23:09:52.848Z,9.63
2022-10-14T23:12:20.659Z,12.10
2022-10-14T23:14:48.444Z,7.80
2022-10-14T23:17:16.010Z,10.77
2022-10-14T23:19:43.554Z,10.73
2022-10-14T23:22:11.138Z,9.23
2022-10-14T23:24:40.399Z,10.13
2022-10-14T23:27:07.943Z,9.45
2022-10-14T23:29:35.506Z,9.77
2022-10-14T23:32:03.763Z,9.18
2022-10-14T23:34:31.414Z,10.63
2022-10-14T23:36:58.973Z,9.73
2022-10-14T23:39:26.595Z,11.90
2022-10-14T23:41:55.509Z,8.68
2022-10-14T23:44:23.104Z,13.25
2022-10-14T23:46:51.068Z,11.25
2022-10-14T23:49:25.987Z,10.32
2022-10-14T23:51:54.327Z,12.82
2022-10-14T23:54:21.945Z,12.00
2022-10-14T23:56:49.469Z,9.50
2022-10-14T23:59:18.476Z,11.07
